createdAt,value
2022-10-08T00:01:25.695Z,7.28
2022-10-08T00:03:55.056Z,7.40
2022-10-08T00:06:30.223Z,7.80
2022-10-08T00:09:01.886Z,7.25
2022-10-08T00:11:35.146Z,7.50
2022-10-08T00:14:03.717Z,6.25
2022-10-08T00:16:37.680Z,7.03
2022-10-08T00:19:08.830Z,7.28
2022-10-08T00:21:38.963Z,7.03
2022-10-08T00:24:08.379Z,6.60
2022-10-08T00:26:41.230Z,7.22
2022-10-08T00:29:13.938Z,6.28
2022-10-08T00:31:44.459Z,6.90
2022-10-08T00:34:17.951Z,6.60
2022-10-08T00:36:46.141Z,7.45
2022-10-08T00:39:19.329Z,7.15
2022-10-08T00:41:52.508Z,7.03
2022-10-08T00:44:48.299Z,5.75
2022-10-08T00:47:31.461Z,5.57
2022-10-08T00:50:05.369Z,6.35
2022-10-08T00:55:06.718Z,5.82
2022-10-08T00:57:35.804Z,5.80
2022-10-08T01:00:22.632Z,6.93
2022-10-08T01:02:50.599Z,6.78
2022-10-08T01:05:22.759Z,7.45
2022-10-08T01:08:10.269Z,6.85
2022-10-08T01:10:54.166Z,6.43
2022-10-08T01:13:39.469Z,6.65
2022-10-08T01:16:41.637Z,7.57
2022-10-08T01:19:21.009Z,6.55
2022-10-08T01:22:18.345Z,7.25
2022-10-08T01:25:07.534Z,6.13
2022-10-08T01:27:43.190Z,6.55
2022-10-08T01:30:15.173Z,6.55
2022-10-08T01:32:49.480Z,6.47
2022-10-08T01:35:24.188Z,7.32
2022-10-08T01:37:56.058Z,6.85
2022-10-08T01:40:29.179Z,6.78
2022-10-08T01:43:00.995Z,6.73
2022-10-08T01:45:34.466Z,6.88
2022-10-08T01:48:07.400Z,6.97
2022-10-08T01:50:52.831Z,6.95
2022-10-08T01:53:24.218Z,6.72
2022-10-08T01:55:54.746Z,6.25
2022-10-08T01:58:31.365Z,6.85
2022-10-08T02:01:07.042Z,6.55
2022-10-08T02:03:34.747Z,6.28
2022-10-08T02:06:05.598Z,6.25
2022-10-08T02:08:33.128Z,7.35
2022-10-08T02:11:00.654Z,6.65
2022-10-08T02:13:28.168Z,6.90
2022-10-08T02:16:01.758Z,6.50
2022-10-08T02:18:46.895Z,6.60
2022-10-08T02:21:25.939Z,6.63
2022-10-08T02:24:03.268Z,6.57
2022-10-08T02:26:42.763Z,6.28
2022-10-08T02:29:24.554Z,7.25
2022-10-08T02:32:04.830Z,5.63
2022-10-08T02:34:37.890Z,5.72
2022-10-08T02:37:14.514Z,6.22
2022-10-08T02:39:49.842Z,5.65
2022-10-08T02:42:23.179Z,5.72
2022-10-08T02:44:57.934Z,6.63
2022-10-08T02:47:28.886Z,6.60
2022-10-08T02:50:02.769Z,5.78
2022-10-08T02:52:39.688Z,5.75
2022-10-08T02:55:19.206Z,5.93
2022-10-08T02:57:55.154Z,6.13
2022-10-08T03:00:23.636Z,5.85
2022-10-08T03:03:07.529Z,6.03
2022-10-08T03:05:37.234Z,5.82
2022-10-08T03:08:06.403Z,5.82
2022-10-08T03:10:38.316Z,5.95
2022-10-08T03:13:07.699Z,6.25
2022-10-08T03:15:37.037Z,5.38
2022-10-08T03:18:08.907Z,5.38
2022-10-08T03:20:49.475Z,5.07
2022-10-08T03:23:18.908Z,5.93
2022-10-08T03:25:46.393Z,5.45
2022-10-08T03:28:13.898Z,6.30
2022-10-08T03:30:41.594Z,5.53
2022-10-08T03:33:09.202Z,5.60
2022-10-08T03:35:36.646Z,5.53
2022-10-08T03:38:04.137Z,6.10
2022-10-08T03:40:31.686Z,5.32
2022-10-08T03:42:59.144Z,6.40
2022-10-08T03:45:26.633Z,5.15
2022-10-08T03:47:54.127Z,5.47
2022-10-08T03:50:22.277Z,5.60
2022-10-08T03:52:50.170Z,5.93
2022-10-08T03:55:18.327Z,5.80
2022-10-08T03:57:45.856Z,5.15
2022-10-08T04:00:13.551Z,5.95
2022-10-08T04:02:41.242Z,5.63
2022-10-08T04:05:09.034Z,6.13
2022-10-08T04:07:36.505Z,6.30
2022-10-08T04:10:04.264Z,6.22
2022-10-08T04:12:31.725Z,6.75
2022-10-08T04:14:59.277Z,6.10
2022-10-08T04:17:26.739Z,6.78
2022-10-08T04:19:54.274Z,7.05
2022-10-08T04:22:21.725Z,6.32
2022-10-08T04:24:49.316Z,7.35
2022-10-08T04:27:16.927Z,7.18
2022-10-08T04:29:44.417Z,6.30
2022-10-08T04:32:11.868Z,6.93
2022-10-08T04:34:39.385Z,6.78
2022-10-08T04:37:06.865Z,7.82
2022-10-08T04:39:34.333Z,7.32
2022-10-08T04:42:01.874Z,6.90
2022-10-08T04:44:29.327Z,7.05
2022-10-08T04:46:56.997Z,6.97
2022-10-08T04:49:25.990Z,7.13
2022-10-08T04:51:53.524Z,7.53
2022-10-08T04:54:21.339Z,7.50
2022-10-08T04:56:48.826Z,7.63
2022-10-08T04:59:16.364Z,7.65
2022-10-08T05:01:43.882Z,7.40
2022-10-08T05:04:11.381Z,7.28
2022-10-08T05:06:38.836Z,7.78
2022-10-08T05:09:06.336Z,8.15
2022-10-08T05:11:34.506Z,7.40
2022-10-08T05:14:02.842Z,7.13
2022-10-08T05:16:30.388Z,7.82
2022-10-08T05:18:58.087Z,7.75
2022-10-08T05:21:28.248Z,8.20
2022-10-08T05:24:05.364Z,7.78
2022-10-08T05:26:57.104Z,7.55
2022-10-08T05:29:23.080Z,8.60
2022-10-08T05:31:50.567Z,8.45
2022-10-08T05:34:18.088Z,8.65
2022-10-08T05:36:45.540Z,8.00
2022-10-08T05:39:13.114Z,8.10
2022-10-08T05:41:40.913Z,7.68
2022-10-08T05:44:10.474Z,8.73
2022-10-08T05:46:39.445Z,7.95
2022-10-08T05:49:18.976Z,8.18
2022-10-08T05:51:47.487Z,8.05
2022-10-08T05:54:15.695Z,8.45
2022-10-08T05:56:43.615Z,8.00
2022-10-08T05:59:21.022Z,8.52
2022-10-08T06:01:49.116Z,7.93
2022-10-08T06:04:18.524Z,7.82
2022-10-08T06:06:46.595Z,8.13
2022-10-08T06:09:17.151Z,8.07
2022-10-08T06:11:45.025Z,7.57
2022-10-08T06:14:14.617Z,8.02
2022-10-08T06:16:42.117Z,7.10
2022-10-08T06:19:10.242Z,7.75
2022-10-08T06:21:38.035Z,7.20
2022-10-08T06:24:08.696Z,8.18
2022-10-08T06:26:38.761Z,7.88
2022-10-08T06:29:08.724Z,7.13
2022-10-08T06:31:36.999Z,7.97
2022-10-08T06:34:05.634Z,7.00
2022-10-08T06:36:35.075Z,7.53
2022-10-08T06:39:06.433Z,7.10
2022-10-08T06:41:35.282Z,7.40
2022-10-08T06:44:05.586Z,7.47
2022-10-08T06:46:34.463Z,7.50
2022-10-08T06:49:02.561Z,8.15
2022-10-08T06:51:30.795Z,7.43
2022-10-08T06:54:05.771Z,8.43
2022-10-08T06:56:36.176Z,8.07
2022-10-08T06:59:05.144Z,7.65
2022-10-08T07:01:34.157Z,7.82
2022-10-08T07:04:03.744Z,8.38
2022-10-08T07:06:31.160Z,7.90
2022-10-08T07:09:01.110Z,8.48
2022-10-08T07:11:30.484Z,7.85
2022-10-08T07:13:58.277Z,7.68
2022-10-08T07:16:27.695Z,9.60
2022-10-08T07:18:58.486Z,8.32
2022-10-08T07:21:27.982Z,8.02
2022-10-08T07:23:56.163Z,9.07
2022-10-08T07:26:26.769Z,8.07
2022-10-08T07:29:00.154Z,8.45
2022-10-08T07:31:30.297Z,8.13
2022-10-08T07:33:59.865Z,8.38
2022-10-08T07:36:28.900Z,8.02
2022-10-08T07:39:07.713Z,8.13
2022-10-08T07:41:35.645Z,8.07
2022-10-08T07:44:04.432Z,9.73
2022-10-08T07:46:34.695Z,10.95
2022-10-08T07:49:04.816Z,7.65
2022-10-08T07:51:34.188Z,9.50
2022-10-08T07:54:04.564Z,8.85
2022-10-08T07:56:33.576Z,9.00
2022-10-08T07:59:02.363Z,9.07
2022-10-08T08:01:31.051Z,9.60
2022-10-08T08:03:59.672Z,9.57
2022-10-08T08:06:27.293Z,9.85
2022-10-08T08:08:55.274Z,9.27
2022-10-08T08:11:25.129Z,8.35
2022-10-08T08:13:54.183Z,8.57
2022-10-08T08:16:25.704Z,8.13
2022-10-08T08:18:55.732Z,7.55
2022-10-08T08:21:26.854Z,7.70
2022-10-08T08:23:56.482Z,7.20
2022-10-08T08:26:29.331Z,7.65
2022-10-08T08:28:59.854Z,8.15
2022-10-08T08:31:33.484Z,7.65
2022-10-08T08:34:05.704Z,7.05
2022-10-08T08:36:36.213Z,7.43
2022-10-08T08:39:05.501Z,6.45
2022-10-08T08:42:10.213Z,6.53
2022-10-08T08:44:46.545Z,7.20
2022-10-08T08:47:41.243Z,7.38
2022-10-08T08:50:19.344Z,6.00
2022-10-08T08:52:47.206Z,6.70
2022-10-08T08:55:17.709Z,6.25
2022-10-08T08:58:21.235Z,6.60
2022-10-08T09:00:56.752Z,5.93
2022-10-08T09:03:34.956Z,6.25
2022-10-08T09:06:09.966Z,6.43
2022-10-08T09:09:20.246Z,5.30
2022-10-08T09:11:48.244Z,5.40
2022-10-08T09:14:30.615Z,5.43
2022-10-08T09:17:02.152Z,5.25
2022-10-08T09:19:29.753Z,5.00
2022-10-08T09:21:57.342Z,5.45
2022-10-08T09:24:25.929Z,4.82
2022-10-08T09:26:54.053Z,4.88
2022-10-08T09:29:34.119Z,4.30
2022-10-08T09:32:01.729Z,5.18
2022-10-08T09:34:29.171Z,4.60
2022-10-08T09:37:05.535Z,4.53
2022-10-08T09:39:35.989Z,4.75
2022-10-08T09:42:18.942Z,4.80
2022-10-08T09:44:49.244Z,4.28
2022-10-08T09:47:22.072Z,4.90
2022-10-08T09:50:03.782Z,5.25
2022-10-08T09:52:31.750Z,4.68
2022-10-08T09:54:59.161Z,4.80
2022-10-08T09:57:27.451Z,4.25
2022-10-08T10:00:03.084Z,4.80
2022-10-08T10:02:34.102Z,4.65
2022-10-08T10:05:05.673Z,4.78
2022-10-08T10:07:42.043Z,4.97
2022-10-08T10:10:30.028Z,5.15
2022-10-08T10:13:07.091Z,4.57
2022-10-08T10:15:39.822Z,5.10
2022-10-08T10:18:18.660Z,5.43
2022-10-08T10:20:54.178Z,5.13
2022-10-08T10:23:24.940Z,4.45
2022-10-08T10:25:53.210Z,4.22
2022-10-08T10:28:40.787Z,5.10
2022-10-08T10:31:14.241Z,4.70
2022-10-08T10:33:54.390Z,5.55
2022-10-08T10:36:24.932Z,5.63
2022-10-08T10:39:06.202Z,4.53
2022-10-08T10:41:43.546Z,4.95
2022-10-08T10:44:20.270Z,5.18
2022-10-08T10:46:55.231Z,5.50
2022-10-08T10:49:27.118Z,5.55
2022-10-08T10:52:21.631Z,4.90
2022-10-08T10:57:26.982Z,5.10
2022-10-08T10:59:54.452Z,5.40
2022-10-08T11:02:32.023Z,6.00
2022-10-08T11:05:11.557Z,5.72
2022-10-08T11:07:51.197Z,5.30
2022-10-08T11:14:44.885Z,4.85
2022-10-08T11:17:22.302Z,4.35
2022-10-08T11:19:58.469Z,3.90
2022-10-08T11:23:12.975Z,4.00
2022-10-08T11:26:20.535Z,3.30
2022-10-08T11:28:52.376Z,3.40
2022-10-08T11:31:37.791Z,3.28
2022-10-08T11:34:14.683Z,3.40
2022-10-08T11:37:07.990Z,3.50
2022-10-08T11:39:58.487Z,3.58
2022-10-08T11:42:51.937Z,3.17
2022-10-08T11:45:29.840Z,4.45
2022-10-08T11:48:00.186Z,4.53
2022-10-08T11:50:29.201Z,5.47
2022-10-08T11:53:02.021Z,4.20
2022-10-08T11:55:32.820Z,3.83
2022-10-08T11:58:09.039Z,3.30
2022-10-08T12:00:40.272Z,4.35
2022-10-08T12:03:20.402Z,6.10
2022-10-08T12:05:53.291Z,9.63
2022-10-08T12:08:53.987Z,5.55
2022-10-08T12:11:36.698Z,5.07
2022-10-08T12:14:29.955Z,7.50
2022-10-08T12:16:57.551Z,4.43
2022-10-08T12:19:36.680Z,3.75
2022-10-08T12:22:24.334Z,3.95
2022-10-08T12:24:59.123Z,2.55
2022-10-08T12:27:38.281Z,2.90
2022-10-08T12:30:14.407Z,2.45
2022-10-08T12:32:41.894Z,3.25
2022-10-08T12:35:26.122Z,3.72
2022-10-08T12:40:39.219Z,3.55
2022-10-08T12:43:32.170Z,2.20
2022-10-08T12:46:17.870Z,1.95
2022-10-08T12:48:58.147Z,1.88
2022-10-08T12:51:39.483Z,1.70
2022-10-08T12:54:22.632Z,2.10
2022-10-08T12:56:52.556Z,2.28
2022-10-08T12:59:23.009Z,1.83
2022-10-08T13:01:54.147Z,1.70
2022-10-08T13:04:24.603Z,1.48
2022-10-08T13:06:55.151Z,1.30
2022-10-08T13:09:33.860Z,1.85
2022-10-08T13:12:05.471Z,1.85
2022-10-08T13:14:41.380Z,1.45
2022-10-08T13:17:28.057Z,1.25
2022-10-08T13:20:15.991Z,1.35
2022-10-08T13:22:43.989Z,1.40
2022-10-08T13:25:35.003Z,1.30
2022-10-08T13:28:36.061Z,1.30
2022-10-08T13:31:23.382Z,1.45
2022-10-08T13:33:51.342Z,1.20
2022-10-08T13:36:23.548Z,1.48
2022-10-08T13:38:51.064Z,1.40
2022-10-08T13:41:24.010Z,1.40
2022-10-08T13:43:51.680Z,1.43
2022-10-08T13:46:19.196Z,1.20
2022-10-08T13:48:46.777Z,1.25
2022-10-08T13:51:14.226Z,1.20
2022-10-08T13:53:45.776Z,1.38
2022-10-08T13:56:13.810Z,1.60
2022-10-08T13:58:41.329Z,1.10
2022-10-08T14:01:08.859Z,1.40
2022-10-08T14:03:36.363Z,1.00
2022-10-08T14:06:04.080Z,1.40
2022-10-08T14:08:34.412Z,1.23
2022-10-08T14:11:02.056Z,1.25
2022-10-08T14:13:29.925Z,1.30
2022-10-08T14:15:57.826Z,1.75
2022-10-08T14:18:26.629Z,0.98
2022-10-08T14:20:54.181Z,1.35
2022-10-08T14:23:22.320Z,1.63
2022-10-08T14:25:51.160Z,1.23
2022-10-08T14:28:18.636Z,1.05
2022-10-08T14:30:46.174Z,1.30
2022-10-08T14:33:15.712Z,1.17
2022-10-08T14:35:43.237Z,1.48
2022-10-08T14:38:10.851Z,1.55
2022-10-08T14:40:39.125Z,1.33
2022-10-08T14:43:06.592Z,1.35
2022-10-08T14:45:34.316Z,1.40
2022-10-08T14:48:01.859Z,1.42
2022-10-08T14:50:29.548Z,1.80
2022-10-08T14:52:57.000Z,1.55
2022-10-08T14:55:24.502Z,2.05
2022-10-08T14:57:51.966Z,2.85
2022-10-08T15:00:19.551Z,2.95
2022-10-08T15:02:47.234Z,2.08
2022-10-08T15:05:14.950Z,1.70
2022-10-08T15:07:42.401Z,2.35
2022-10-08T15:10:10.129Z,2.05
2022-10-08T15:12:37.629Z,2.00
2022-10-08T15:15:05.920Z,1.90
2022-10-08T15:17:33.357Z,2.10
2022-10-08T15:20:00.891Z,2.22
2022-10-08T15:22:28.302Z,2.58
2022-10-08T15:24:55.741Z,2.63
2022-10-08T15:27:23.540Z,2.50
2022-10-08T15:29:50.980Z,2.00
2022-10-08T15:32:18.477Z,2.40
2022-10-08T15:34:45.952Z,2.03
2022-10-08T15:37:14.745Z,1.90
2022-10-08T15:39:42.144Z,1.88
2022-10-08T15:42:12.653Z,1.88
2022-10-08T15:44:43.468Z,2.20
2022-10-08T15:47:12.216Z,2.42
2022-10-08T15:49:43.912Z,2.80
2022-10-08T15:52:18.284Z,1.58
2022-10-08T15:54:46.302Z,2.00
2022-10-08T15:57:16.465Z,1.55
2022-10-08T15:59:44.286Z,2.08
2022-10-08T16:02:16.950Z,2.70
2022-10-08T16:04:47.153Z,2.50
2022-10-08T16:07:15.247Z,2.88
2022-10-08T16:09:42.707Z,7.75
2022-10-08T16:12:10.277Z,6.45
2022-10-08T16:14:37.712Z,3.90
2022-10-08T16:17:05.318Z,5.70
2022-10-08T16:19:32.840Z,3.50
2022-10-08T16:22:01.428Z,3.17
2022-10-08T16:24:28.951Z,2.63
2022-10-08T16:26:56.454Z,1.80
2022-10-08T16:29:23.834Z,1.58
2022-10-08T16:31:51.350Z,1.80
2022-10-08T16:34:21.219Z,1.50
2022-10-08T16:36:50.011Z,2.90
2022-10-08T16:39:20.654Z,2.83
2022-10-08T16:41:49.412Z,2.45
2022-10-08T16:44:19.480Z,2.20
2022-10-08T16:46:50.768Z,1.88
2022-10-08T16:49:24.483Z,1.80
2022-10-08T16:51:58.669Z,2.28
2022-10-08T16:54:27.032Z,1.83
2022-10-08T16:56:54.622Z,1.70
2022-10-08T16:59:24.780Z,2.75
2022-10-08T17:01:55.696Z,1.98
2022-10-08T17:04:25.271Z,2.08
2022-10-08T17:06:52.681Z,2.15
2022-10-08T17:09:20.887Z,1.92
2022-10-08T17:11:48.411Z,2.55
2022-10-08T17:14:16.606Z,3.08
2022-10-08T17:16:45.858Z,2.90
2022-10-08T17:19:13.939Z,2.20
2022-10-08T17:21:41.889Z,2.08
2022-10-08T17:24:11.691Z,2.30
2022-10-08T17:26:39.741Z,1.90
2022-10-08T17:29:09.464Z,1.77
2022-10-08T17:31:37.609Z,2.17
2022-10-08T17:34:06.401Z,2.17
2022-10-08T17:36:36.493Z,2.30
2022-10-08T17:39:06.586Z,2.50
2022-10-08T17:41:36.614Z,2.42
2022-10-08T17:44:06.945Z,2.10
2022-10-08T17:46:37.906Z,2.33
2022-10-08T17:49:06.237Z,2.17
2022-10-08T17:51:33.788Z,2.70
2022-10-08T17:54:07.494Z,2.42
2022-10-08T17:56:35.492Z,2.58
2022-10-08T17:59:03.127Z,3.08
2022-10-08T18:01:33.016Z,3.30
2022-10-08T18:04:02.989Z,3.15
2022-10-08T18:06:31.500Z,3.90
2022-10-08T18:09:01.020Z,5.05
2022-10-08T18:11:30.921Z,5.32
2022-10-08T18:13:58.681Z,4.00
2022-10-08T18:16:26.212Z,3.83
2022-10-08T18:18:54.011Z,3.28
2022-10-08T18:21:21.700Z,3.25
2022-10-08T18:23:49.918Z,4.90
2022-10-08T18:26:25.321Z,6.60
2022-10-08T18:28:57.580Z,5.18
2022-10-08T18:31:27.740Z,4.63
2022-10-08T18:33:58.742Z,4.07
2022-10-08T18:36:31.557Z,3.50
2022-10-08T18:39:01.448Z,3.90
2022-10-08T18:41:31.770Z,3.63
2022-10-08T18:44:00.752Z,3.90
2022-10-08T18:46:28.847Z,3.90
2022-10-08T18:48:57.061Z,3.80
2022-10-08T18:51:27.348Z,3.63
2022-10-08T18:53:56.986Z,4.07
2022-10-08T18:56:34.479Z,3.33
2022-10-08T18:59:04.528Z,3.72
2022-10-08T19:01:34.900Z,4.10
2022-10-08T19:04:05.026Z,4.13
2022-10-08T19:06:37.592Z,4.25
2022-10-08T19:09:06.515Z,4.10
2022-10-08T19:11:44.376Z,3.75
2022-10-08T19:14:15.476Z,4.10
2022-10-08T19:16:43.305Z,3.65
2022-10-08T19:19:20.120Z,3.95
2022-10-08T19:21:48.487Z,3.60
2022-10-08T19:24:19.660Z,3.90
2022-10-08T19:26:48.551Z,3.63
2022-10-08T19:29:18.758Z,3.75
2022-10-08T19:31:47.787Z,3.03
2022-10-08T19:34:18.129Z,3.30
2022-10-08T19:36:46.343Z,3.10
2022-10-08T19:39:16.603Z,2.80
2022-10-08T19:41:45.231Z,3.08
2022-10-08T19:44:12.871Z,3.00
2022-10-08T19:46:40.444Z,2.58
2022-10-08T19:49:09.921Z,2.63
2022-10-08T19:51:38.410Z,2.70
2022-10-08T19:54:06.302Z,3.17
2022-10-08T19:56:33.873Z,3.28
2022-10-08T19:59:01.951Z,3.08
2022-10-08T20:01:35.096Z,2.65
2022-10-08T20:04:05.102Z,2.60
2022-10-08T20:06:35.763Z,2.55
2022-10-08T20:09:04.247Z,3.33
2022-10-08T20:11:32.589Z,2.75
2022-10-08T20:14:00.981Z,2.30
2022-10-08T20:16:33.890Z,2.83
2022-10-08T20:19:04.673Z,3.27
2022-10-08T20:21:35.015Z,2.92
2022-10-08T20:24:03.047Z,2.47
2022-10-08T20:26:32.248Z,2.50
2022-10-08T20:29:02.251Z,2.33
2022-10-08T20:31:32.173Z,2.33
2022-10-08T20:34:02.491Z,2.58
2022-10-08T20:36:30.441Z,2.40
2022-10-08T20:38:58.307Z,2.63
2022-10-08T20:41:30.930Z,2.60
2022-10-08T20:44:03.571Z,2.80
2022-10-08T20:46:32.373Z,3.15
2022-10-08T20:49:00.067Z,2.45
2022-10-08T20:51:28.896Z,2.72
2022-10-08T20:53:59.061Z,3.10
2022-10-08T20:56:27.562Z,2.63
2022-10-08T20:58:55.727Z,2.70
2022-10-08T21:01:29.446Z,2.53
2022-10-08T21:03:57.671Z,2.60
2022-10-08T21:06:30.544Z,2.80
2022-10-08T21:08:59.456Z,2.90
2022-10-08T21:11:30.111Z,2.65
2022-10-08T21:13:59.700Z,2.63
2022-10-08T21:16:32.395Z,2.33
2022-10-08T21:19:02.672Z,2.63
2022-10-08T21:21:31.529Z,2.42
2022-10-08T21:23:59.687Z,2.30
2022-10-08T21:26:29.351Z,2.58
2022-10-08T21:29:01.878Z,2.80
2022-10-08T21:31:31.589Z,2.85
2022-10-08T21:33:59.829Z,2.45
2022-10-08T21:36:35.804Z,2.38
2022-10-08T21:39:05.298Z,2.20
2022-10-08T21:41:34.591Z,2.47
2022-10-08T21:44:04.713Z,2.60
2022-10-08T21:46:35.129Z,2.70
2022-10-08T21:49:06.012Z,2.70
2022-10-08T21:51:34.451Z,2.63
2022-10-08T21:54:03.858Z,2.45
2022-10-08T21:56:33.581Z,2.60
2022-10-08T21:59:03.937Z,2.50
2022-10-08T22:01:39.966Z,2.60
2022-10-08T22:04:17.399Z,2.50
2022-10-08T22:06:50.607Z,3.08
2022-10-08T22:09:19.701Z,2.75
2022-10-08T22:11:48.135Z,2.85
2022-10-08T22:14:16.582Z,3.08
2022-10-08T22:16:44.168Z,3.17
2022-10-08T22:19:11.852Z,3.08
2022-10-08T22:21:39.292Z,3.00
2022-10-08T22:24:07.280Z,3.20
2022-10-08T22:26:37.042Z,2.97
2022-10-08T22:29:05.519Z,3.40
2022-10-08T22:31:33.630Z,3.10
2022-10-08T22:34:01.251Z,3.42
2022-10-08T22:36:32.036Z,3.58
2022-10-08T22:38:59.882Z,3.33
2022-10-08T22:41:30.481Z,3.28
2022-10-08T22:43:59.214Z,2.88
2022-10-08T22:46:29.877Z,2.75
2022-10-08T22:49:02.789Z,2.83
2022-10-08T22:51:31.217Z,2.88
2022-10-08T22:53:59.160Z,2.85
2022-10-08T22:56:29.370Z,2.67
2022-10-08T22:58:59.326Z,2.95
2022-10-08T23:01:28.331Z,2.60
2022-10-08T23:03:56.481Z,2.50
2022-10-08T23:06:32.725Z,2.67
2022-10-08T23:09:11.551Z,2.20
2022-10-08T23:11:39.191Z,2.83
2022-10-08T23:14:07.021Z,2.90
2022-10-08T23:16:34.990Z,3.30
2022-10-08T23:19:05.895Z,2.78
2022-10-08T23:21:34.630Z,3.00
2022-10-08T23:24:03.206Z,2.92
2022-10-08T23:26:30.782Z,2.67
2022-10-08T23:29:00.619Z,3.00
2022-10-08T23:31:36.321Z,3.05
2022-10-08T23:34:06.551Z,3.33
2022-10-08T23:36:37.300Z,2.90
2022-10-08T23:39:06.217Z,3.22
2022-10-08T23:41:33.669Z,3.28
2022-10-08T23:44:01.407Z,3.20
2022-10-08T23:46:30.417Z,3.60
2022-10-08T23:48:59.535Z,3.30
2022-10-08T23:51:28.570Z,3.15
2022-10-08T23:53:55.997Z,2.75
2022-10-08T23:56:23.600Z,3.15
2022-10-08T23:58:51.229Z,2.90
